Weather observations for the past three days for
Corsicana, Campbell Field-Corsicana Municipal Airport
Imperial (Metric)
Date Time (cdt) Wind (mph) Vis. (mi.) Weather Sky Cond. Temperature (ºF) Relative Humidity Wind Chill (°F) Heat Index (°F) Pressure Precipitation (in)
Air Dwpt 6 hour altimeter (in) sea level (mb) 1 hr 3 hr 6 hr
Max. Min.
04 19:53 S 12 10.00 Fair CLR 77 63 62% 79 29.76 1007.5
04 18:53 S 15 G 23 10.00 Fair CLR 79 63 82.9 79 58% 81 29.77 1007.9
04 17:53 S 20 G 31 10.00 Fair CLR 81 62.1 53% 82 29.79 1008.2
04 16:53 S 15 G 29 10.00 A Few Clouds FEW045 82 62.1 51% 83 29.8 1008.7
04 15:53 S 18 G 30 10.00 Fair CLR 82 61 49% 83 29.83 1009.7
04 14:53 S 16 G 26 10.00 Fair CLR 82 59 46% 82 29.86 1010.7
04 13:53 S 16 G 29 10.00 Fair CLR 81 57 44% 81 29.89 1011.8
04 12:53 S 20 G 26 10.00 Fair CLR 80.1 54 80.1 57.9 41% 80 29.92 1012.7
04 11:53 S 17 G 30 10.00 Fair CLR 78.1 53.1 42% 79 29.94 1013.5
04 10:53 S 16 G 26 10.00 Fair CLR 75.9 55 48% 78 29.96 1014.1
04 09:53 S 16 G 23 10.00 Fair CLR 72 55.9 57% 29.98 1014.7
04 08:53 S 14 G 20 10.00 Fair CLR 66 55 68% 29.98 1014.9
04 07:53 S 9 10.00 Fair CLR 61 54 78% 29.97 1014.7
04 06:53 S 9 10.00 Fair CLR 57 53.1 63 57 87% 29.97 1014.4
04 05:53 S 8 10.00 Fair CLR 57 52 83% 29.97 1014.3
04 04:53 S 6 10.00 Fair CLR 57.9 52 81% 29.97 1014.4
04 03:53 S 7 10.00 Fair CLR 59 52 78% 29.98 1014.9
04 02:53 S 9 10.00 Fair CLR 61 51.1 70% 29.99 1015.1
04 01:53 S 9 10.00 Fair CLR 62.1 50 65% 30.01 1015.7
04 00:53 S 8 10.00 Fair CLR 63 51.1 78.1 63 65% 30.02 1016.3
03 23:53 S 9 10.00 Fair CLR 64.9 52 63% 30.04 1016.7
03 22:53 S 9 10.00 Fair CLR 64.9 53.1 66% 30.04 1016.8
03 21:53 S 6 10.00 Fair CLR 66.9 53.1 61% 30.04 1016.8
03 20:53 S 7 10.00 Fair CLR 68 52 57% 30.03 1016.4
03 19:53 S 6 10.00 Fair CLR 73 52 48% 30.02 1016.4
03 18:53 SW 9 10.00 Fair CLR 79 50 82 79 36% 79 30.03 1016.6
03 17:53 S 12 10.00 Fair CLR 80.1 48 33% 79 30.04 1016.9
03 16:53 S 10 G 22 10.00 Fair CLR 81 48.9 33% 80 30.06 1017.6
03 15:53 S 10 9.00 Fair CLR 81 48.9 33% 80 30.09 1018.5
03 14:53 SW 8 10.00 Fair CLR 80.1 48 33% 79 30.12 1019.5
03 13:53 S 12 G 20 10.00 Fair CLR 80.1 48 33% 79 30.14 1020.3
03 12:53 SW 7 G 17 10.00 Fair CLR 79 50 79 54 36% 79 30.17 1021.2
03 11:53 SW 12 10.00 Fair CLR 78.1 51.1 39% 79 30.2 1022.1
03 10:53 W 14 10.00 Fair CLR 75 52 45% 78 30.21 1022.5
03 09:53 SW 9 10.00 Fair CLR 71.1 53.1 53% 30.21 1022.5
03 08:53 SW 7 10.00 Fair CLR 64 54 70% 30.2 1022.4
03 07:53 SW 5 10.00 Fair CLR 57 51.1 81% 30.19 1021.9
03 06:53 SW 3 10.00 Fair CLR 54 48 59 53.1 80% 30.16 1021.1
03 05:53 W 5 10.00 Fair CLR 53.1 48 83% 30.15 1020.7
03 04:53 SW 6 10.00 Fair CLR 53.1 48 83% 30.15 1020.6
03 03:53 SW 8 10.00 Fair CLR 54 48 80% 30.14 1020.2
03 02:53 SW 6 10.00 Fair CLR 55 48 77% 30.14 1020.2
03 01:53 S 6 10.00 Fair CLR 57 48 72% 30.15 1020.7
03 00:53 S 7 10.00 Fair CLR 57.9 48 75 57.9 70% 30.15 1020.8
02 23:53 S 6 10.00 Fair CLR 59 50 72% 30.15 1020.5
02 22:53 S 6 10.00 Fair CLR 62.1 50 65% 30.15 1020.6
02 21:53 Calm 10.00 Fair CLR 64 51.1 63% 30.14 1020.2
02 20:53 Calm 10.00 Fair CLR 64.9 50 59% 30.12 1019.7
02 19:53 Calm 10.00 Fair CLR 72 46.9 41% 30.11 1019.4
02 18:53 NW 5 10.00 Fair CLR 75 46 78.1 73 36% 77 30.1 1019.2
02 17:53 N 6 10.00 Fair CLR 77 44.1 31% 78 30.11 1019.2
02 16:53 Calm 10.00 Fair CLR 77 45 32% 78 30.11 1019.4
02 15:53 N 3 10.00 Fair CLR 75.9 46 35% 78 30.13 1020.0
02 14:53 Vrbl 5 10.00 Fair CLR 75.9 46 35% 78 30.14 1020.4
02 13:53 Vrbl 5 10.00 Fair CLR 73.9 45 36% 30.16 1021.0
02 12:53 N 8 10.00 Fair CLR 73 43 73.9 50 34% 30.18 1021.9
02 11:53 Vrbl 7 10.00 Fair CLR 71.1 48 44% 30.2 1022.6
02 10:53 N 8 10.00 Fair CLR 68 51.1 55% 30.2 1022.3
02 09:53 NW 10 10.00 Fair CLR 66 51.1 59% 30.19 1022.0
02 08:53 NW 12 10.00 Fair CLR 61 48.9 65% 30.18 1021.7
02 07:53 NW 6 10.00 Fair CLR 54 50 87% 30.16 1021.2
02 06:53 NW 5 10.00 Fair CLR 51.1 48 53.1 51.1 89% 30.13 1020.3
02 05:53 N 7 10.00 Fair CLR 53.1 48 83% 30.1 1019.1
02 04:53 NW 6 10.00 Fair CLR 52 48 86% 30.1 1019.2
02 03:53 N 6 10.00 Fair CLR 52 48 86% 30.09 1018.8
02 02:53 NW 6 10.00 Fair CLR 52 48 86% 30.09 1018.7
02 01:53 NW 5 10.00 Fair CLR 53.1 48.9 86% 30.1 1019.2
02 00:53 N 5 10.00 Fair CLR 53.1 50 61 53.1 89% 30.1 1019.1
01 23:53 N 6 10.00 Fair CLR 54 51.1 90% 30.1 1019.0
01 22:53 Calm 10.00 Partly Cloudy SCT110 55.9 51.1 84% 30.08 1018.6
01 21:53 NE 6 10.00 Mostly Cloudy BKN120 59 50 72% 30.07 1018.0
01 20:53 NE 6 10.00 Overcast OVC110 59 50 72% 30.05 1017.2
Date Time (cdt) Wind (mph) Vis. (mi.) Weather Sky Cond. Air Dwpt Max. Min. Relative Humidity Wind Chill (°F) Heat Index (°F) altimeter (in) sea level (mb) 1 hr 3 hr 6 hr
6 hour
Temperature (ºF) Pressure Precipitation (in)